Pablo Herrero

Recruteur en chef - Gijón
16 Sept 2027
Jeudi
Processus

Personnalité

Adaptabilité (1) Ambition (3) Controverse (3) Loyauté (9) Pression (5) Professionnalisme (13) Sportivité (18) Tempérament (18)

Profil

Style d'entraînement Démocratique
Diplôme National A
Détermination 11
Gestion des joueurs 6
Motivation 8
Discipline 7
Satisfaction professionnelle
100%
Fatigue
0%
Rôle Recruteur en chef
Salaire 43.0K p/s
Contrat 14.03.2028

Performance

Comportement Bon
Efficacité de l'entraînement
33%
Développement des joueurs
35%
Prévention des blessures
65%
Mise en place tactique
20%

Événements récents

A participé à une réunion de recrutement maintenant
A recommandé une cible de transfert maintenant
A recommandé une cible de transfert maintenant
A participé à une réunion de recrutement maintenant
A recommandé une cible de transfert maintenant
A recommandé une cible de transfert 7j
A participé à une réunion de recrutement 7j
A recommandé une cible de transfert 7j

Suivi en cours

206
Joueur Club Statut Capacité Confiance Observé Dernière observation Dernier vote
Jokin Gabilondo Zaragoza Rapport prêt 112 / 104 76% 1 16.08.2027 -
Christos Mouzakitis Hull City Actif 134 / 137 40% 5 02.08.2027 -
Caleb Yirenkyi Coventry City Actif 136 / 155 40% 4 02.08.2027 -
Josh Smith Accrington Stanley Actif 88 / 78 40% 2 02.08.2027 -
Ernie Weaver AFC Wimbledon Actif 109 / 112 40% 4 26.07.2027 -
Jan Bürger Gillingham Actif 115 / 123 40% 1 26.07.2027 -
Samuel Lucero Defensa y Justicia Actif 115 / 106 40% 2 19.07.2027 -
Davide Bartesaghi AC Milan Actif 135 / 136 40% 2 19.07.2027 -
Kazunari Kita Real Sociedad Actif 101 / 106 40% 1 19.07.2027 -
Jofre Torrents Ajax Actif 131 / 141 40% 2 29.06.2027 -
Bernardo Lima Porto Actif 99 / 110 40% 1 29.06.2027 -
João Teixeira Porto Actif 111 / 127 40% 1 29.06.2027 -
Christ Inao Oulaï Fiorentina Actif 132 / 147 40% 4 14.06.2027 -
Bernard Sulemana Hasaacas Actif 95 / 78 40% 2 02.06.2027 -
Bitello SC Freiburg Négociation 135 / 135 68% 1 01.06.2027 -
Facundo Torres LOSC Lille Rapport prêt 134 / 134 67% 1 01.06.2027 -
Oscar Schwartau Norwich City Actif 121 / 125 40% 4 30.05.2027 -
Yussif Saidu Zaragoza Actif 129 / 135 40% 3 30.05.2027 -
Ben Gannon Doak Bournemouth Actif 141 / 151 40% 1 30.05.2027 -
Lander Astiazarán Real Sociedad Actif 105 / 120 67% 4 29.05.2027 -
Matías Gómez Granada Actif 114 / 121 40% 7 29.05.2027 -
Yusi Alavés Actif 125 / 121 40% 8 27.05.2027 -
Pablo García Racing Santander Actif 124 / 136 40% 2 27.05.2027 -
Fidel Ambríz Monterrey Actif 128 / 115 40% 5 27.05.2027 -
Ethan Galbraith Swansea City Actif 138 / 129 40% 4 27.05.2027 -
Isma Ruiz Córdoba Actif 135 / 124 40% 1 27.05.2027 -
Rayan Bournemouth Actif 137 / 136 40% 2 24.05.2027 -
Adrià Altimira Deportivo La Coruña Actif 129 / 138 40% 3 24.05.2027 -
Daijiro Chirino Almería Actif 135 / 134 40% 2 24.05.2027 -
Marvin Park Las Palmas Actif 133 / 122 40% 2 22.05.2027 -
Noah Sadiki Sunderland Actif 141 / 157 40% 1 22.05.2027 -
Kevin Vazquez Cruz Azul Actif 138 / 121 40% 14 21.05.2027 -
Keagan Tau Ajax Cape Town Actif 91 / 119 40% 2 21.05.2027 -
Shea Charles Southampton Actif 137 / 147 40% 6 21.05.2027 -
Percy Jali Free State Stars Actif 98 / 116 40% 2 21.05.2027 -
Toni Tamarit Alverca Actif 121 / 121 40% 1 21.05.2027 -
Williams Manyama SuperSport United Actif 119 / 108 40% 3 20.05.2027 -
Jesús Orozco Chiquete Cruz Azul Actif 129 / 135 40% 5 19.05.2027 -
Max Bird Birmingham Actif 138 / 123 40% 2 19.05.2027 -
Florentino Luís Ipswich Town Actif 138 / 152 40% 4 19.05.2027 -
Richard Ledezma Guadalajara Actif 140 / 137 40% 6 18.05.2027 -
Riley Owen Trento Actif 103 / 107 40% 2 18.05.2027 -
Alejandro Francés Girona Actif 130 / 137 40% 1 18.05.2027 -
Ousmane Diomande Nottingham Forest Actif 156 / 156 40% 4 17.05.2027 -
Derry Murkin Derby County Actif 129 / 127 40% 1 17.05.2027 -
Pol Lozano Espanyol Actif 135 / 130 40% 6 16.05.2027 -
Callum Doyle Wrexham Actif 132 / 138 40% 2 16.05.2027 -
Adrien Truffert Bournemouth Actif 155 / 151 40% 2 16.05.2027 -
Moussa Diakité Cádiz Actif 125 / 125 40% 2 15.05.2027 -
Omar El Hilali Espanyol Actif 142 / 144 40% 6 15.05.2027 -
Welington Southampton Actif 138 / 136 40% 5 14.05.2027 -
Joel McGregor Swindon Town Actif 87 / 105 40% 3 14.05.2027 -
Bojan Kovačević Cádiz Actif 124 / 130 40% 3 13.05.2027 -
Urko González Espanyol Actif 138 / 141 40% 4 12.05.2027 -
Álex Lizancos Burgos Actif 125 / 139 40% 3 12.05.2027 -
Rodrigo Mora AS Roma Actif 133 / 134 40% 2 12.05.2027 -
Endrick Real Madrid Actif 145 / 153 40% 1 12.05.2027 -
Ibrahim Maza Bayer Leverkusen Actif 147 / 138 40% 3 11.05.2027 -
José Pachuca Puebla Actif 108 / 105 40% 1 11.05.2027 -
Fran García Betis Actif 146 / 140 40% 5 10.05.2027 -
Alessandro Buongiorno Sassuolo Actif 159 / 149 40% 1 10.05.2027 -
Ryan Sessegnon Fulham Actif 141 / 149 40% 6 09.05.2027 -
Pablo Ramón Racing Santander Actif 131 / 140 40% 3 07.05.2027 -
Jon Garro Real Sociedad Actif 83 / 108 67% 3 07.05.2027 -
Kristoffer Lund Birmingham Actif 125 / 122 40% 1 07.05.2027 -
Leandro Martins Benfica Actif 88 / 96 40% 1 07.05.2027 -
Adam Wharton Crystal Palace Actif 153 / 151 40% 3 06.05.2027 -
Jesús Rodríguez Como Actif 149 / 151 40% 1 05.05.2027 -
Josh King Chelsea Actif 137 / 157 40% 1 03.05.2027 -
Ilaix Moriba Celta Actif 145 / 141 40% 6 02.05.2027 -
Izan Merino Málaga Actif 121 / 133 40% 4 02.05.2027 -
Milan van Ewijk Mansfield Town Actif 127 / 119 40% 1 01.05.2027 -
Brian Rodríguez Club America Actif 135 / 123 40% 1 29.04.2027 -
Jason Knight Bristol City Actif 133 / 133 40% 1 29.04.2027 -
Eduardo Dos Santos Veracruz Actif 126 / 137 40% 2 26.04.2027 -
Diego Pampín Granada Actif 118 / 135 40% 2 26.04.2027 -
Quinten Timber Crystal Palace Actif 150 / 157 40% 3 25.04.2027 -
Harry Clarke Preston Actif 125 / 137 40% 1 23.04.2027 -
Javi Rodríguez Celta Actif 154 / 165 40% 2 22.04.2027 -
Darlin Yongwa Norwich City Actif 123 / 128 40% 1 20.04.2027 -
Othmane Maamma Watford Actif 132 / 120 40% 3 19.04.2027 -
Ez Abde Girona Actif 152 / 148 40% 1 19.04.2027 -
Mikkel Damsgaard Brentford Actif 146 / 145 40% 1 19.04.2027 -
Olívio Tomé Benfica Actif 114 / 111 40% 1 19.04.2027 -
Tani Oluwaseyi Villarreal Actif 139 / 152 40% 6 16.04.2027 -
Diego Lainez Tigres Actif 138 / 134 40% 1 16.04.2027 -
Víctor Guzmán Monterrey Actif 139 / 148 40% 3 15.04.2027 -
Pedro Vite Pumas UNAM Actif 117 / 140 40% 3 09.04.2027 -
Warren Zaïre-Emery Paris Saint-Germain Actif 159 / 151 40% 5 08.04.2027 -
Aarón Mejía Tijuana Actif 123 / 129 40% 5 08.04.2027 -
Martim Cunha Porto Actif 96 / 114 40% 1 08.04.2027 -
Ramón Juárez Club America Actif 134 / 141 40% 4 07.04.2027 -
Zane Albarus Cambridge United Actif 94 / 100 40% 1 05.04.2027 -
Georginio Rutter Brighton Actif 145 / 155 40% 3 04.04.2027 -
Ozziel Herrera Tigres Actif 135 / 129 40% 11 04.04.2027 -
Emi Rodriguez Leon Actif 117 / 124 40% 1 04.04.2027 -
Yehor Yarmoliuk Brentford Actif 147 / 149 40% 3 01.04.2027 -
Jayden Luker Barnet Actif 96 / 98 40% 1 30.03.2027 -
Lovro Zvonarek Estrela da Amadora Actif 120 / 121 40% 1 29.03.2027 -
Tiago Santos LOSC Lille Actif 148 / 131 40% 1 23.03.2027 -
Jackson Porozo Tijuana Actif 126 / 132 40% 1 21.03.2027 -
Rômulo Tigres Actif 123 / 112 40% 2 19.03.2027 -
Rocco Vata Watford Actif 116 / 120 40% 1 19.03.2027 -
Jan Virgili Club Brugge Actif 134 / 131 40% 5 17.03.2027 -
Tiago Freitas Benfica Actif 108 / 108 40% 1 16.03.2027 -
Jonás Luna Santa Clara Actif 118 / 126 40% 5 13.03.2027 -
Pablo Monroy Pumas UNAM Actif 124 / 135 40% 2 11.03.2027 -
Aaron Hickey Brentford Actif 140 / 133 40% 1 11.03.2027 -
Santiago Simón Toluca Actif 128 / 132 40% 1 10.03.2027 -
Samir El Mourabet RC Strasbourg Actif 121 / 122 40% 1 10.03.2027 -
Antoni Milambo Brentford Actif 139 / 135 40% 1 10.03.2027 -
James Dornelly Peterborough United Actif 98 / 104 40% 1 10.03.2027 -
Mandla Erasmus SuperSport United Actif 128 / 125 40% 3 06.03.2027 -
Matt O'Riley Brighton Actif 151 / 133 40% 1 05.03.2027 -
Efraín Álvarez Guadalajara Actif 130 / 140 40% 5 04.03.2027 -
Tomás González Piast Actif 118 / 130 40% 7 04.03.2027 -
Roberto Fernández Braga Actif 138 / 145 40% 2 04.03.2027 Plus d'infos
Marezi Portsmouth Actif 119 / 120 40% 1 03.03.2027 -
Yousef Salech Cardiff City Actif 125 / 137 40% 4 01.03.2027 -
Mandla Mahlangu Ajax Cape Town Actif 102 / 86 40% 2 01.03.2027 -
Thiago Brentford Actif 153 / 157 40% 4 28.02.2027 -
Andrés Martín Racing Santander Actif 132 / 148 40% 8 26.02.2027 -
Luis Vázquez Birmingham Actif 127 / 118 40% 3 26.02.2027 -
Senny Mayulu Paris Saint-Germain Actif 139 / 141 40% 1 26.02.2027 -
Adrián Niño Málaga Actif 126 / 124 40% 2 24.02.2027 -
Duk Atlas Actif 123 / 124 40% 6 23.02.2027 -
Kwame Opoku Asante Kotoko Actif 110 / 99 40% 2 23.02.2027 -
Abel Ruiz Girona Actif 144 / 149 40% 1 22.02.2027 -
Malick Fofana Sunderland Actif 140 / 150 40% 3 21.02.2027 -
Bamba Dieng Crvena Zvezda Actif 126 / 121 40% 2 21.02.2027 -
Fotis Ioannidis Rio Ave Actif 135 / 138 40% 3 21.02.2027 Observer
Aune Heggebø West Bromwich Albion Actif 132 / 122 40% 2 18.02.2027 -
Razvan Balasa Crvena Zvezda Actif 154 / 125 40% 2 14.02.2027 -
Dango Ouattara Brentford Actif 143 / 143 40% 3 12.02.2027 -
Adnan Courtois KV Oostende Actif 133 / 126 40% 4 10.02.2027 -
Toni Fruk KV Mechelen Actif 136 / 125 89% 3 10.02.2027 Fortement pour
Joaquin Seys Club Brugge Actif 130 / 134 40% 1 10.02.2027 -
Etiosa Ighodaro Kaizer Chiefs Actif 122 / 123 40% 1 08.02.2027 -
Diego López Rayo Vallecano Actif 143 / 145 40% 1 07.02.2027 -
Morgan Whittaker Middlesbrough Actif 136 / 135 40% 2 05.02.2027 -
Alejandro Gómez Tijuana Actif 116 / 123 40% 1 05.02.2027 -
Jesús Vázquez Valencia Actif 139 / 121 40% 1 05.02.2027 -
Israel Reyes CSKA Moscow Actif 146 / 133 40% 2 04.02.2027 -
Ilay Camara Anderlecht Actif 135 / 138 40% 1 03.02.2027 -
Juan Cruz Martins Jihlava Actif 105 / 102 40% 2 01.02.2027 -
Rubén Sobrino Cultural Leonesa Actif 116 / 130 76% 1 25.01.2027 -
Tom Cannon Sheffield United Actif 123 / 130 40% 1 11.01.2027 -
David Cordova Atletico Venezuela Actif 91 / 78 40% 2 06.01.2027 -
Konstantin Tyukavin Inter Négociation 132 / 133 66% 1 01.01.2027 -
Nicolás Fernández Mercau Shakhtar Actif 134 / 134 67% 1 01.01.2027 -
Lisandro Tejada San Martín SJ Actif 83 / 96 40% 1 01.01.2027 -
Rayane Bounida Ajax Actif 128 / 140 40% 1 30.12.2026 -
Germán Valera Elche Actif 133 / 149 40% 3 28.12.2026 -
Themba Ngcobo SuperSport United Actif 128 / 131 40% 4 27.12.2026 -
Ferran Jutglà Celta Actif 137 / 149 40% 4 26.12.2026 -
Mfundo Vilakazi Kaizer Chiefs Actif 104 / 110 40% 1 25.12.2026 -
Hakim Sulemana Medeama Actif 103 / 121 40% 1 25.12.2026 -
Joaquín Panichelli Le Havre AC Actif 142 / 146 40% 1 20.12.2026 -
Giacomo Raspadori Atalanta Actif 154 / 157 40% 2 18.12.2026 -
Diego Gaitán Maipú Actif 103 / 129 40% 1 13.12.2026 -
Ramiro Ruiz Rodríguez Atlético Tucumán Actif 125 / 108 40% 5 10.12.2026 -
Jonathan Dubasin Osasuna Actif 139 / 134 40% 2 10.12.2026 -
Tommy Conway Middlesbrough Actif 126 / 135 40% 1 08.12.2026 -
Ruben van Bommel Ferencvaros Actif 130 / 132 40% 1 06.12.2026 -
Agustín Módica Gimnasia y Esgrima Actif 119 / 114 40% 1 03.12.2026 -
Alexander Díaz Deportivo Riestra Actif 125 / 110 40% 3 02.12.2026 -
Urko Izeta Cádiz Actif 126 / 116 40% 2 02.12.2026 -
Alexis Cuello San Lorenzo Actif 126 / 143 40% 4 28.11.2026 -
Wilson Isidor Sunderland Actif 140 / 135 40% 1 27.11.2026 -
Tyler Adams Bournemouth Actif 147 / 160 40% 1 26.11.2026 -
Manuel Ospina Cortulua Actif 120 / 142 40% 2 24.11.2026 -
Ethan Williams Peterborough United Actif 113 / 122 40% 2 06.11.2026 -
Patrick Preciado Deportivo Pasto Actif 104 / 115 40% 1 06.11.2026 -
Nicolò Tresoldi Club Brugge Actif 128 / 129 40% 1 04.11.2026 -
Lorent Tolaj Plymouth Argyle Actif 120 / 118 40% 1 03.11.2026 -
Arda Güler Real Madrid Actif 152 / 160 40% 1 03.11.2026 -
Santiago Sala Güemes Actif 102 / 121 40% 4 01.11.2026 -
Juan Cruz Meza River Plate Actif 99 / 128 40% 1 01.11.2026 -
Mauro Valiente Estudiantes Actif 119 / 133 40% 1 28.10.2026 -
Tristan Degreef Anderlecht Actif 129 / 127 40% 1 28.10.2026 -
Mateo Garavito Deportivo Pasto Actif 124 / 114 40% 2 22.10.2026 -
Jermein Peña Junior Actif 126 / 131 40% 1 22.10.2026 -
José Castillo Guadalajara Actif 113 / 117 40% 1 21.10.2026 -
José Ortiz Atletico Bucaramanga Actif 114 / 113 40% 1 19.10.2026 -
Gavi Barcelona Actif 161 / 151 40% 1 19.10.2026 -
Eric Meza Estudiantes Actif 131 / 126 40% 1 19.10.2026 -
Juan Manuel Zapata Envigado Actif 123 / 99 40% 2 18.10.2026 -
Leandro Lozano Boca Juniors Actif 133 / 119 40% 1 18.10.2026 -
Omar Campos Cruz Azul Actif 117 / 115 40% 1 18.10.2026 -
Nicolás Cordero Aldosivi Actif 112 / 124 40% 2 17.10.2026 -
Juan Rocca Gimnasia y Tiro Actif 111 / 99 40% 1 17.10.2026 -
César Ibáñez Huracán Actif 125 / 127 40% 1 16.10.2026 -
Luca Martínez Dupuy Godoy Cruz Actif 121 / 113 40% 1 14.10.2026 -
Bénie Traoré New York City Actif 131 / 138 40% 2 13.10.2026 -
Martín Garay Tigre Actif 111 / 114 40% 1 11.10.2026 -
Adalberto Carrasquilla Pumas UNAM Actif 123 / 127 40% 1 10.10.2026 -
Matías Sosa Arsenal Actif 110 / 107 40% 1 08.10.2026 -
Rafael Navarro St. Louis CITY SC Actif 126 / 124 40% 1 08.10.2026 -
Oscar Salomón Newell's Old Boys Actif 122 / 142 40% 1 07.10.2026 -
Nicolás Fonseca Leon Actif 122 / 134 40% 1 07.10.2026 -
Sebastián Cocimano Nueva Chicago Actif 122 / 106 40% 1 06.10.2026 -
Luis Montilla San Telmo Actif 76 / 102 40% 2 31.08.2026 -
Iván Alejo Valladolid Actif 121 / 125 76% 1 31.08.2026 Approuver
Federico Bonini Almería Actif 126 / 125 76% 1 17.08.2026 Approuver
Agustín Olavarría Colon Actif 81 / 85 40% 1 10.08.2026 -
Salvi Sánchez Actif 125 / 124 76% 1 03.08.2026 Approuver